»·PEaware :: AMX664 KLAX-KSFO

AMX664 :: KLAX-KSFO

FLIGHT INFORMATION

Flight Status: Arrived
Operator:
Aeromexico
More flights by this operator :: More flights under this callsign
Pilot: Alfredo R. (12181)
Aircraft: BOEING 737-800
(B738)
More flights by this aircraft type
Origin: KLAX Los Angeles Intl
United States
Destination: KSFO San Francisco Intl
United States
More flights between these airports :: More routes between these airports
Route: +SUMMR1 STOKD SERFR SERFR3
File this flight plan on PilotEdge
Remarks:
Altitude:
(Current/Filed)
32,000ft
Speed:
(Current/Filed)
225kts
Departed: 21-Apr-19 07:24 PM
Arrived: 21-Apr-19 08:22 PM
Distance/Time
Traveled:
293nm/0:57
Distance/Time
To Go:
Arrived

Flight Plot

Page will automatically refresh every two minutes.

Flight plan parsing failed; only flown route is shown


Map Options




Map Legend


Flown Route
Filed Route
Departure Airport
Arrival Airport
Navaid (VOR, NDB)
Fix

Horizontal Profiles

Position Reports

Time Latitude Longitude Heading Altitude Ground
Speed
21-Apr-19 18:54 33.946652 -118.408338 112 122ft 0kts
21-Apr-19 18:55 33.946652 -118.408338 112 122ft 0kts
21-Apr-19 18:56 33.946652 -118.408338 112 122ft 0kts
21-Apr-19 18:57 33.946652 -118.408338 112 122ft 0kts
21-Apr-19 18:58 33.946652 -118.408338 112 122ft 0kts
21-Apr-19 18:59 33.946652 -118.408338 112 122ft 0kts
21-Apr-19 19:00 33.946652 -118.408338 112 122ft 0kts
21-Apr-19 19:01 33.946652 -118.408338 112 122ft 0kts
21-Apr-19 19:02 33.946652 -118.408338 112 122ft 0kts
21-Apr-19 19:03 33.946652 -118.408338 112 122ft 0kts
21-Apr-19 19:04 33.946652 -118.408338 112 122ft 0kts
21-Apr-19 19:05 33.946652 -118.408338 112 122ft 0kts
21-Apr-19 19:06 33.946652 -118.408338 112 122ft 0kts
21-Apr-19 19:07 33.946652 -118.408338 112 122ft 0kts
21-Apr-19 19:08 33.946699 -118.408480 110 122ft 2kts
21-Apr-19 19:09 33.946733 -118.409012 35 122ft 2kts
21-Apr-19 19:10 33.946753 -118.409082 352 122ft 4kts
21-Apr-19 19:11 33.947014 -118.409117 353 122ft 0kts
21-Apr-19 19:12 33.947014 -118.409117 353 122ft 0kts
21-Apr-19 19:13 33.947014 -118.409117 353 122ft 0kts
21-Apr-19 19:14 33.947014 -118.409117 353 122ft 0kts
21-Apr-19 19:15 33.947014 -118.409117 353 122ft 0kts
21-Apr-19 19:16 33.947015 -118.409118 353 122ft 0kts
21-Apr-19 19:17 33.947737 -118.408899 22 122ft 6kts
21-Apr-19 19:18 33.948725 -118.405226 83 119ft 16kts
21-Apr-19 19:19 33.949229 -118.401845 36 116ft 0kts
21-Apr-19 19:20 33.949230 -118.401844 35 116ft 0kts
21-Apr-19 19:21 33.949257 -118.401823 33 116ft 2kts
21-Apr-19 19:22 33.950085 -118.402600 265 116ft 0kts
21-Apr-19 19:23 33.947034 -118.432523 264 683ft 148kts
21-Apr-19 19:24 33.942018 -118.485015 264 2909ft 164kts
21-Apr-19 19:25 33.938986 -118.547673 269 4247ft 228kts
21-Apr-19 19:26 33.932861 -118.631877 268 6996ft 264kts
21-Apr-19 19:27 33.925845 -118.722003 268 9862ft 281kts
21-Apr-19 19:28 33.917941 -118.823651 269 11950ft 319kts
21-Apr-19 19:29 33.919485 -118.930895 276 14905ft 321kts
21-Apr-19 19:30 33.933393 -119.037826 300 17758ft 324kts
21-Apr-19 19:31 33.982201 -119.133450 303 20327ft 338kts
21-Apr-19 19:32 34.045562 -119.218420 324 22602ft 350kts
21-Apr-19 19:33 34.126918 -119.287473 324 24680ft 363kts
21-Apr-19 19:34 34.210515 -119.359299 324 26600ft 375kts
21-Apr-19 19:35 34.296651 -119.433594 324 28371ft 386kts
21-Apr-19 19:36 34.384871 -119.509920 324 29928ft 398kts
21-Apr-19 19:37 34.467731 -119.600584 315 31474ft 406kts
21-Apr-19 19:38 34.548366 -119.700214 314 32029ft 420kts
21-Apr-19 19:39 34.629718 -119.800933 315 32029ft 418kts
21-Apr-19 19:40 34.710797 -119.901486 315 32079ft 417kts
21-Apr-19 19:41 34.791807 -120.002197 315 32077ft 418kts
21-Apr-19 19:42 34.873230 -120.103712 315 32091ft 416kts
21-Apr-19 19:43 34.954343 -120.205099 315 32095ft 418kts
21-Apr-19 19:44 35.034881 -120.306077 316 32092ft 411kts
21-Apr-19 19:45 35.116062 -120.405077 319 32103ft 413kts
21-Apr-19 19:46 35.200683 -120.499708 319 32091ft 411kts
21-Apr-19 19:47 35.285308 -120.594643 320 32091ft 410kts
21-Apr-19 19:48 35.369292 -120.689147 319 32092ft 411kts
21-Apr-19 19:49 35.453501 -120.784362 320 32096ft 411kts
21-Apr-19 19:50 35.539899 -120.871692 326 32076ft 393kts
21-Apr-19 19:51 35.627585 -120.952522 326 32076ft 393kts
21-Apr-19 19:52 35.713840 -121.032665 326 32079ft 386kts
21-Apr-19 19:53 35.799384 -121.112458 327 32072ft 383kts
21-Apr-19 19:54 35.883990 -121.191662 327 31055ft 373kts
21-Apr-19 19:55 35.967491 -121.269966 328 29503ft 375kts
21-Apr-19 19:56 36.049930 -121.347527 328 27934ft 375kts
21-Apr-19 19:57 36.137467 -121.419550 332 26393ft 374kts
21-Apr-19 19:58 36.226174 -121.488207 331 24914ft 376kts
21-Apr-19 19:59 36.313184 -121.556211 331 23424ft 363kts
21-Apr-19 20:00 36.395144 -121.620499 331 21956ft 346kts
21-Apr-19 20:01 36.473334 -121.682023 330 20764ft 329kts
21-Apr-19 20:02 36.550301 -121.742831 330 19565ft 326kts
21-Apr-19 20:03 36.625157 -121.802109 330 18373ft 321kts
21-Apr-19 20:04 36.699537 -121.861123 330 17166ft 317kts
21-Apr-19 20:05 36.776915 -121.905560 348 15837ft 310kts
21-Apr-19 20:06 36.861031 -121.928125 347 14416ft 307kts
21-Apr-19 20:07 36.942082 -121.950630 347 13099ft 291kts
21-Apr-19 20:08 37.019604 -121.979042 343 11870ft 289kts
21-Apr-19 20:09 37.096256 -122.009005 343 10628ft 287kts
21-Apr-19 20:10 37.170089 -122.037925 343 9224ft 265kts
21-Apr-19 20:11 37.236756 -122.064092 344 8004ft 245kts
21-Apr-19 20:12 37.301135 -122.089405 344 6878ft 240kts
21-Apr-19 20:13 37.363909 -122.114164 343 5776ft 231kts
21-Apr-19 20:14 37.423238 -122.135446 345 4704ft 213kts
21-Apr-19 20:15 37.476604 -122.153771 345 3770ft 185kts
21-Apr-19 20:16 37.523840 -122.170214 338 3117ft 170kts
21-Apr-19 20:17 37.552116 -122.216833 299 2576ft 162kts
21-Apr-19 20:18 37.571505 -122.262902 298 1729ft 132kts
21-Apr-19 20:19 37.588031 -122.302040 296 1055ft 125kts
21-Apr-19 20:20 37.604399 -122.340968 296 363ft 126kts
21-Apr-19 20:21 37.617288 -122.371694 298 14ft 23kts
21-Apr-19 20:22 37.619082 -122.377335 266 25ft 22kts
21-Apr-19 20:23 37.615929 -122.380107 210 30ft 8kts
21-Apr-19 20:24 37.615611 -122.382568 220 30ft 1kts
21-Apr-19 20:25 37.615532 -122.382658 225 30ft 0kts
21-Apr-19 20:26 37.615533 -122.382658 225 30ft 0kts

Navigation Log

Ident Type
Flight plan parsing failed, navigation log unavailable